sensor_id;sensor_type;location;lat;lon;timestamp;noise_LAeq;noise_LA_min;noise_LA_max;noise_LA01;noise_LA95
70740;Laerm;58330;51.888;11.052;2023-04-16T00:00:36;30.37;29.12;31.65;;
70740;Laerm;58330;51.888;11.052;2023-04-16T00:03:02;30.36;28.77;39.24;;
70740;Laerm;58330;51.888;11.052;2023-04-16T00:05:29;30.38;29.22;39.37;;
70740;Laerm;58330;51.888;11.052;2023-04-16T00:07:55;30.38;28.86;31.56;;
70740;Laerm;58330;51.888;11.052;2023-04-16T00:10:21;30.35;28.98;39.45;;
70740;Laerm;58330;51.888;11.052;2023-04-16T00:12:47;30.34;28.64;39.19;;
70740;Laerm;58330;51.888;11.052;2023-04-16T00:15:13;30.42;29.15;39.81;;
70740;Laerm;58330;51.888;11.052;2023-04-16T00:17:41;30.77;29.52;32.23;;
70740;Laerm;58330;51.888;11.052;2023-04-16T00:20:08;30.43;28.98;38.40;;
70740;Laerm;58330;51.888;11.052;2023-04-16T00:22:35;30.36;29.03;38.40;;
70740;Laerm;58330;51.888;11.052;2023-04-16T00:25:01;30.53;29.05;38.91;;
70740;Laerm;58330;51.888;11.052;2023-04-16T00:27:28;31.95;28.96;59.36;;
70740;Laerm;58330;51.888;11.052;2023-04-16T00:29:54;30.39;28.51;38.07;;
70740;Laerm;58330;51.888;11.052;2023-04-16T00:32:20;30.39;28.96;38.61;;
70740;Laerm;58330;51.888;11.052;2023-04-16T00:34:48;30.39;28.98;39.06;;
70740;Laerm;58330;51.888;11.052;2023-04-16T00:37:14;30.36;29.06;39.06;;
70740;Laerm;58330;51.888;11.052;2023-04-16T00:39:41;30.34;29.09;39.32;;
70740;Laerm;58330;51.888;11.052;2023-04-16T00:42:07;30.34;28.88;39.32;;
70740;Laerm;58330;51.888;11.052;2023-04-16T00:44:34;30.34;29.05;39.80;;
70740;Laerm;58330;51.888;11.052;2023-04-16T00:47:01;30.39;28.94;39.90;;
70740;Laerm;58330;51.888;11.052;2023-04-16T00:49:27;30.38;29.01;39.62;;
70740;Laerm;58330;51.888;11.052;2023-04-16T00:51:56;30.36;28.82;40.39;;
70740;Laerm;58330;51.888;11.052;2023-04-16T00:54:23;30.39;29.12;40.61;;
70740;Laerm;58330;51.888;11.052;2023-04-16T00:56:50;30.41;28.63;40.36;;
70740;Laerm;58330;51.888;11.052;2023-04-16T00:59:16;30.55;29.04;40.68;;
70740;Laerm;58330;51.888;11.052;2023-04-16T01:01:42;31.11;29.12;57.68;;
70740;Laerm;58330;51.888;11.052;2023-04-16T01:04:09;30.48;29.14;37.41;;
70740;Laerm;58330;51.888;11.052;2023-04-16T01:06:35;30.42;29.26;38.41;;
70740;Laerm;58330;51.888;11.052;2023-04-16T01:09:04;30.43;28.85;38.69;;
70740;Laerm;58330;51.888;11.052;2023-04-16T01:11:30;30.40;28.87;39.45;;
70740;Laerm;58330;51.888;11.052;2023-04-16T01:13:56;30.39;29.19;39.76;;
70740;Laerm;58330;51.888;11.052;2023-04-16T01:16:23;30.39;29.00;39.87;;
70740;Laerm;58330;51.888;11.052;2023-04-16T01:18:50;30.38;29.07;39.82;;
70740;Laerm;58330;51.888;11.052;2023-04-16T01:21:18;30.37;29.28;39.32;;
70740;Laerm;58330;51.888;11.052;2023-04-16T01:23:45;30.60;29.17;40.78;;
70740;Laerm;58330;51.888;11.052;2023-04-16T01:26:11;31.20;29.25;57.98;;
70740;Laerm;58330;51.888;11.052;2023-04-16T01:28:37;30.44;29.13;37.71;;
70740;Laerm;58330;51.888;11.052;2023-04-16T01:31:04;30.37;28.91;38.14;;
70740;Laerm;58330;51.888;11.052;2023-04-16T01:33:30;30.38;29.02;38.78;;
70740;Laerm;58330;51.888;11.052;2023-04-16T01:35:56;30.39;29.13;39.20;;
70740;Laerm;58330;51.888;11.052;2023-04-16T01:38:24;30.40;29.15;39.35;;
70740;Laerm;58330;51.888;11.052;2023-04-16T01:40:54;30.63;29.24;39.61;;
70740;Laerm;58330;51.888;11.052;2023-04-16T01:43:20;31.19;29.13;58.06;;
70740;Laerm;58330;51.888;11.052;2023-04-16T01:45:46;30.45;28.90;37.60;;
70740;Laerm;58330;51.888;11.052;2023-04-16T01:48:13;30.44;29.07;38.24;;
70740;Laerm;58330;51.888;11.052;2023-04-16T01:50:39;30.42;29.07;38.36;;
70740;Laerm;58330;51.888;11.052;2023-04-16T01:53:06;30.45;29.16;38.87;;
70740;Laerm;58330;51.888;11.052;2023-04-16T01:55:35;30.50;28.78;39.50;;
70740;Laerm;58330;51.888;11.052;2023-04-16T01:58:01;30.49;29.33;39.69;;
70740;Laerm;58330;51.888;11.052;2023-04-16T02:00:27;30.55;29.22;39.87;;
70740;Laerm;58330;51.888;11.052;2023-04-16T02:02:53;30.53;29.12;39.77;;
70740;Laerm;58330;51.888;11.052;2023-04-16T02:05:20;30.56;29.29;39.97;;
70740;Laerm;58330;51.888;11.052;2023-04-16T02:07:46;30.49;29.05;40.67;;
70740;Laerm;58330;51.888;11.052;2023-04-16T02:10:13;30.46;28.96;40.58;;
70740;Laerm;58330;51.888;11.052;2023-04-16T02:12:40;30.59;29.12;40.86;;
70740;Laerm;58330;51.888;11.052;2023-04-16T02:15:07;30.56;29.08;41.38;;
70740;Laerm;58330;51.888;11.052;2023-04-16T02:17:33;30.63;29.31;40.61;;
70740;Laerm;58330;51.888;11.052;2023-04-16T02:19:59;30.67;29.26;39.61;;
70740;Laerm;58330;51.888;11.052;2023-04-16T02:22:29;30.63;29.10;40.39;;
70740;Laerm;58330;51.888;11.052;2023-04-16T02:24:55;30.62;29.13;40.53;;
70740;Laerm;58330;51.888;11.052;2023-04-16T02:27:22;30.59;29.05;40.88;;
70740;Laerm;58330;51.888;11.052;2023-04-16T02:29:49;30.71;28.95;41.24;;
70740;Laerm;58330;51.888;11.052;2023-04-16T02:32:16;30.59;28.92;39.86;;
70740;Laerm;58330;51.888;11.052;2023-04-16T02:34:42;30.56;29.13;40.27;;
70740;Laerm;58330;51.888;11.052;2023-04-16T02:37:08;30.68;29.15;40.95;;
70740;Laerm;58330;51.888;11.052;2023-04-16T02:39:35;30.58;29.19;40.95;;
70740;Laerm;58330;51.888;11.052;2023-04-16T02:42:01;30.56;28.87;40.71;;
70740;Laerm;58330;51.888;11.052;2023-04-16T02:44:28;30.58;29.09;41.63;;
70740;Laerm;58330;51.888;11.052;2023-04-16T02:46:55;31.46;29.19;59.59;;
70740;Laerm;58330;51.888;11.052;2023-04-16T02:49:22;30.52;29.07;36.85;;
70740;Laerm;58330;51.888;11.052;2023-04-16T02:51:48;30.57;29.30;38.44;;
70740;Laerm;58330;51.888;11.052;2023-04-16T02:54:15;30.54;29.16;38.88;;
70740;Laerm;58330;51.888;11.052;2023-04-16T02:56:41;30.52;29.05;39.47;;
70740;Laerm;58330;51.888;11.052;2023-04-16T02:59:07;30.51;29.16;40.54;;
70740;Laerm;58330;51.888;11.052;2023-04-16T03:01:34;30.55;29.28;40.46;;
70740;Laerm;58330;51.888;11.052;2023-04-16T03:04:02;30.60;29.35;40.56;;
70740;Laerm;58330;51.888;11.052;2023-04-16T03:06:28;30.67;29.22;40.51;;
70740;Laerm;58330;51.888;11.052;2023-04-16T03:08:55;30.63;29.36;39.68;;
70740;Laerm;58330;51.888;11.052;2023-04-16T03:11:22;30.59;29.11;39.96;;
70740;Laerm;58330;51.888;11.052;2023-04-16T03:13:48;30.66;29.07;41.23;;
70740;Laerm;58330;51.888;11.052;2023-04-16T03:16:14;30.62;29.29;40.40;;
70740;Laerm;58330;51.888;11.052;2023-04-16T03:18:41;30.61;29.20;40.90;;
70740;Laerm;58330;51.888;11.052;2023-04-16T03:21:08;30.65;29.24;41.57;;
70740;Laerm;58330;51.888;11.052;2023-04-16T03:23:35;30.65;29.27;41.51;;
70740;Laerm;58330;51.888;11.052;2023-04-16T03:26:01;30.63;29.24;41.69;;
70740;Laerm;58330;51.888;11.052;2023-04-16T03:28:27;30.63;29.20;41.69;;
70740;Laerm;58330;51.888;11.052;2023-04-16T03:30:54;30.71;29.24;40.00;;
70740;Laerm;58330;51.888;11.052;2023-04-16T03:33:20;30.63;29.09;41.00;;
70740;Laerm;58330;51.888;11.052;2023-04-16T03:35:53;30.65;29.19;41.46;;
70740;Laerm;58330;51.888;11.052;2023-04-16T03:38:21;30.63;29.32;42.19;;
70740;Laerm;58330;51.888;11.052;2023-04-16T03:40:47;30.64;29.15;41.71;;
70740;Laerm;58330;51.888;11.052;2023-04-16T03:43:13;30.69;29.17;42.65;;
70740;Laerm;58330;51.888;11.052;2023-04-16T03:45:42;30.93;29.33;33.82;;
70740;Laerm;58330;51.888;11.052;2023-04-16T03:48:08;31.25;29.31;41.24;;
70740;Laerm;58330;51.888;11.052;2023-04-16T03:50:35;31.31;29.26;43.56;;
70740;Laerm;58330;51.888;11.052;2023-04-16T03:53:01;31.11;28.77;43.62;;
70740;Laerm;58330;51.888;11.052;2023-04-16T03:55:29;30.82;29.18;43.63;;
70740;Laerm;58330;51.888;11.052;2023-04-16T03:57:55;30.68;29.21;41.08;;
70740;Laerm;58330;51.888;11.052;2023-04-16T04:00:21;30.66;29.24;42.06;;
70740;Laerm;58330;51.888;11.052;2023-04-16T04:02:48;30.89;29.26;41.10;;
70740;Laerm;58330;51.888;11.052;2023-04-16T04:05:14;30.68;29.05;43.39;;
70740;Laerm;58330;51.888;11.052;2023-04-16T04:07:40;30.87;29.30;44.48;;
70740;Laerm;58330;51.888;11.052;2023-04-16T04:10:07;30.68;29.08;44.80;;
70740;Laerm;58330;51.888;11.052;2023-04-16T04:12:35;30.62;29.08;42.42;;
70740;Laerm;58330;51.888;11.052;2023-04-16T04:15:02;30.61;29.24;42.41;;
70740;Laerm;58330;51.888;11.052;2023-04-16T04:17:28;30.61;29.16;42.26;;
70740;Laerm;58330;51.888;11.052;2023-04-16T04:19:54;30.64;29.30;42.37;;
70740;Laerm;58330;51.888;11.052;2023-04-16T04:22:21;30.64;29.24;42.36;;
70740;Laerm;58330;51.888;11.052;2023-04-16T04:24:47;30.62;29.12;42.59;;
70740;Laerm;58330;51.888;11.052;2023-04-16T04:27:13;30.62;29.35;43.08;;
70740;Laerm;58330;51.888;11.052;2023-04-16T04:29:41;30.65;28.92;42.07;;
70740;Laerm;58330;51.888;11.052;2023-04-16T04:32:07;31.04;29.58;32.47;;
70740;Laerm;58330;51.888;11.052;2023-04-16T04:34:34;31.37;29.29;41.97;;
70740;Laerm;58330;51.888;11.052;2023-04-16T04:37:00;31.40;29.14;42.87;;
70740;Laerm;58330;51.888;11.052;2023-04-16T04:39:26;31.51;29.16;43.65;;
70740;Laerm;58330;51.888;11.052;2023-04-16T04:41:53;31.24;29.29;44.09;;
70740;Laerm;58330;51.888;11.052;2023-04-16T04:44:19;30.92;29.32;44.53;;
70740;Laerm;58330;51.888;11.052;2023-04-16T04:46:47;30.96;29.14;44.67;;
70740;Laerm;58330;51.888;11.052;2023-04-16T04:49:13;31.14;29.11;44.37;;
70740;Laerm;58330;51.888;11.052;2023-04-16T04:51:39;30.81;29.23;43.86;;
70740;Laerm;58330;51.888;11.052;2023-04-16T04:54:06;30.71;29.26;44.37;;
70740;Laerm;58330;51.888;11.052;2023-04-16T04:56:32;30.83;29.25;44.25;;
70740;Laerm;58330;51.888;11.052;2023-04-16T04:58:58;30.69;28.88;44.45;;
70740;Laerm;58330;51.888;11.052;2023-04-16T05:01:25;30.77;29.14;44.68;;
70740;Laerm;58330;51.888;11.052;2023-04-16T05:03:53;30.90;29.55;32.34;;
70740;Laerm;58330;51.888;11.052;2023-04-16T05:06:19;30.81;29.58;32.32;;
70740;Laerm;58330;51.888;11.052;2023-04-16T05:08:45;30.90;29.01;40.11;;
70740;Laerm;58330;51.888;11.052;2023-04-16T05:11:12;30.75;29.29;36.56;;
70740;Laerm;58330;51.888;11.052;2023-04-16T05:13:38;32.69;29.46;58.02;;
70740;Laerm;58330;51.888;11.052;2023-04-16T05:16:05;30.91;29.10;41.68;;
70740;Laerm;58330;51.888;11.052;2023-04-16T05:18:31;31.30;29.18;42.42;;
70740;Laerm;58330;51.888;11.052;2023-04-16T05:20:59;31.03;29.17;42.40;;
70740;Laerm;58330;51.888;11.052;2023-04-16T05:23:26;31.47;28.94;41.47;;
70740;Laerm;58330;51.888;11.052;2023-04-16T05:25:53;31.01;29.24;41.43;;
70740;Laerm;58330;51.888;11.052;2023-04-16T05:28:19;30.93;29.18;41.89;;
70740;Laerm;58330;51.888;11.052;2023-04-16T05:30:45;30.79;29.12;43.58;;
70740;Laerm;58330;51.888;11.052;2023-04-16T05:33:12;30.58;29.21;40.07;;
70740;Laerm;58330;51.888;11.052;2023-04-16T05:35:38;30.61;29.18;41.62;;
70740;Laerm;58330;51.888;11.052;2023-04-16T05:38:06;30.57;29.12;41.44;;
70740;Laerm;58330;51.888;11.052;2023-04-16T05:40:32;30.61;29.14;46.41;;
70740;Laerm;58330;51.888;11.052;2023-04-16T05:42:58;30.59;29.03;40.35;;
70740;Laerm;58330;51.888;11.052;2023-04-16T05:45:25;30.59;29.24;42.64;;
70740;Laerm;58330;51.888;11.052;2023-04-16T05:47:51;30.62;29.03;42.40;;
70740;Laerm;58330;51.888;11.052;2023-04-16T05:50:18;30.65;29.29;40.77;;
70740;Laerm;58330;51.888;11.052;2023-04-16T05:52:44;30.65;29.25;42.88;;
70740;Laerm;58330;51.888;11.052;2023-04-16T05:55:12;30.55;29.26;41.06;;
70740;Laerm;58330;51.888;11.052;2023-04-16T05:57:38;30.56;28.80;42.72;;
70740;Laerm;58330;51.888;11.052;2023-04-16T06:00:05;30.56;29.17;40.52;;
70740;Laerm;58330;51.888;11.052;2023-04-16T06:02:32;30.76;29.19;40.56;;
70740;Laerm;58330;51.888;11.052;2023-04-16T06:04:58;30.65;29.18;42.12;;
70740;Laerm;58330;51.888;11.052;2023-04-16T06:07:24;30.55;29.04;42.28;;
70740;Laerm;58330;51.888;11.052;2023-04-16T06:09:51;30.57;28.85;43.31;;
70740;Laerm;58330;51.888;11.052;2023-04-16T06:12:19;30.56;29.03;43.31;;
70740;Laerm;58330;51.888;11.052;2023-04-16T06:14:45;30.58;29.23;40.45;;
70740;Laerm;58330;51.888;11.052;2023-04-16T06:17:11;30.54;29.12;40.53;;
70740;Laerm;58330;51.888;11.052;2023-04-16T06:19:38;30.69;29.27;40.18;;
70740;Laerm;58330;51.888;11.052;2023-04-16T06:22:06;30.57;29.38;40.77;;
70740;Laerm;58330;51.888;11.052;2023-04-16T06:24:32;30.58;29.24;40.53;;
70740;Laerm;58330;51.888;11.052;2023-04-16T06:26:59;30.55;29.25;40.53;;
70740;Laerm;58330;51.888;11.052;2023-04-16T06:29:26;30.55;29.18;40.52;;
70740;Laerm;58330;51.888;11.052;2023-04-16T06:31:53;30.67;29.18;41.63;;
70740;Laerm;58330;51.888;11.052;2023-04-16T06:34:19;30.72;29.17;42.45;;
70740;Laerm;58330;51.888;11.052;2023-04-16T06:36:45;30.65;29.22;43.55;;
70740;Laerm;58330;51.888;11.052;2023-04-16T06:39:12;30.56;29.29;41.79;;
70740;Laerm;58330;51.888;11.052;2023-04-16T06:41:38;30.56;29.11;41.49;;
70740;Laerm;58330;51.888;11.052;2023-04-16T06:44:05;30.58;29.29;41.53;;
70740;Laerm;58330;51.888;11.052;2023-04-16T06:46:33;30.59;29.32;41.67;;
70740;Laerm;58330;51.888;11.052;2023-04-16T06:48:59;30.59;29.27;41.42;;
70740;Laerm;58330;51.888;11.052;2023-04-16T06:51:26;30.60;29.27;41.51;;
70740;Laerm;58330;51.888;11.052;2023-04-16T06:53:52;30.61;29.17;41.56;;
70740;Laerm;58330;51.888;11.052;2023-04-16T06:56:18;31.18;29.22;57.81;;
70740;Laerm;58330;51.888;11.052;2023-04-16T06:58:45;30.77;29.31;32.17;;
70740;Laerm;58330;51.888;11.052;2023-04-16T07:01:11;30.81;29.12;43.16;;
70740;Laerm;58330;51.888;11.052;2023-04-16T07:03:39;30.51;29.29;36.87;;
70740;Laerm;58330;51.888;11.052;2023-04-16T07:06:05;30.53;29.13;38.15;;
70740;Laerm;58330;51.888;11.052;2023-04-16T07:08:31;30.55;29.35;38.80;;
70740;Laerm;58330;51.888;11.052;2023-04-16T07:10:58;30.56;29.22;38.87;;
70740;Laerm;58330;51.888;11.052;2023-04-16T07:13:24;30.54;29.23;39.25;;
70740;Laerm;58330;51.888;11.052;2023-04-16T07:15:51;30.59;29.14;41.65;;
70740;Laerm;58330;51.888;11.052;2023-04-16T07:18:17;30.68;28.99;42.86;;
70740;Laerm;58330;51.888;11.052;2023-04-16T07:20:45;30.56;29.14;40.01;;
70740;Laerm;58330;51.888;11.052;2023-04-16T07:23:12;30.55;29.27;40.41;;
70740;Laerm;58330;51.888;11.052;2023-04-16T07:25:38;30.57;29.39;40.57;;
70740;Laerm;58330;51.888;11.052;2023-04-16T07:28:05;30.59;29.35;43.59;;
70740;Laerm;58330;51.888;11.052;2023-04-16T07:30:32;30.96;29.37;38.90;;
70740;Laerm;58330;51.888;11.052;2023-04-16T07:32:59;30.92;29.52;33.06;;
70740;Laerm;58330;51.888;11.052;2023-04-16T07:35:26;30.82;29.16;32.37;;
70740;Laerm;58330;51.888;11.052;2023-04-16T07:37:54;31.07;29.36;39.52;;
70740;Laerm;58330;51.888;11.052;2023-04-16T07:40:20;30.89;29.19;39.89;;
70740;Laerm;58330;51.888;11.052;2023-04-16T07:42:46;30.73;29.20;40.23;;
70740;Laerm;58330;51.888;11.052;2023-04-16T07:45:12;30.69;29.10;39.87;;
70740;Laerm;58330;51.888;11.052;2023-04-16T07:47:39;30.65;29.31;40.42;;
70740;Laerm;58330;51.888;11.052;2023-04-16T07:50:05;31.00;28.97;41.67;;
70740;Laerm;58330;51.888;11.052;2023-04-16T07:52:32;31.07;29.38;41.71;;
70740;Laerm;58330;51.888;11.052;2023-04-16T07:54:59;30.61;29.19;39.15;;
70740;Laerm;58330;51.888;11.052;2023-04-16T07:57:26;30.62;29.33;39.73;;
70740;Laerm;58330;51.888;11.052;2023-04-16T07:59:52;30.62;29.15;39.43;;
70740;Laerm;58330;51.888;11.052;2023-04-16T08:02:18;30.66;28.88;39.41;;
70740;Laerm;58330;51.888;11.052;2023-04-16T08:04:45;30.67;29.12;39.57;;
70740;Laerm;58330;51.888;11.052;2023-04-16T08:07:11;30.65;29.06;40.50;;
70740;Laerm;58330;51.888;11.052;2023-04-16T08:09:45;30.68;29.23;41.91;;
70740;Laerm;58330;51.888;11.052;2023-04-16T08:12:13;30.67;29.19;43.35;;
70740;Laerm;58330;51.888;11.052;2023-04-16T08:14:40;30.73;29.36;42.93;;
70740;Laerm;58330;51.888;11.052;2023-04-16T08:17:06;30.76;29.34;43.99;;
70740;Laerm;58330;51.888;11.052;2023-04-16T08:19:33;30.74;29.20;43.24;;
70740;Laerm;58330;51.888;11.052;2023-04-16T08:21:59;30.74;29.25;43.40;;
70740;Laerm;58330;51.888;11.052;2023-04-16T08:24:26;31.13;29.43;43.93;;
70740;Laerm;58330;51.888;11.052;2023-04-16T08:26:52;31.18;29.19;43.61;;
70740;Laerm;58330;51.888;11.052;2023-04-16T08:29:20;31.18;29.40;44.69;;
70740;Laerm;58330;51.888;11.052;2023-04-16T08:31:49;31.46;29.37;43.96;;
70740;Laerm;58330;51.888;11.052;2023-04-16T08:34:15;31.43;29.38;42.79;;
70740;Laerm;58330;51.888;11.052;2023-04-16T08:36:42;31.57;29.57;42.63;;
70740;Laerm;58330;51.888;11.052;2023-04-16T08:39:08;31.56;29.55;44.43;;
70740;Laerm;58330;51.888;11.052;2023-04-16T08:41:35;31.76;29.43;42.76;;
70740;Laerm;58330;51.888;11.052;2023-04-16T08:44:08;32.20;29.45;44.01;;
70740;Laerm;58330;51.888;11.052;2023-04-16T08:46:36;32.48;29.62;43.83;;
70740;Laerm;58330;51.888;11.052;2023-04-16T08:49:04;32.60;29.60;42.52;;
70740;Laerm;58330;51.888;11.052;2023-04-16T08:51:32;31.25;29.59;42.74;;
70740;Laerm;58330;51.888;11.052;2023-04-16T08:54:02;35.03;29.76;43.20;;
70740;Laerm;58330;51.888;11.052;2023-04-16T08:56:30;33.34;29.74;43.81;;
70740;Laerm;58330;51.888;11.052;2023-04-16T08:58:56;31.20;29.69;38.94;;
70740;Laerm;58330;51.888;11.052;2023-04-16T09:01:25;31.72;29.48;40.57;;
70740;Laerm;58330;51.888;11.052;2023-04-16T09:03:53;36.53;30.07;40.40;;
70740;Laerm;58330;51.888;11.052;2023-04-16T09:06:20;37.37;30.13;40.50;;
70740;Laerm;58330;51.888;11.052;2023-04-16T09:08:47;35.07;30.32;38.94;;
70740;Laerm;58330;51.888;11.052;2023-04-16T09:11:14;36.51;30.50;39.68;;
70740;Laerm;58330;51.888;11.052;2023-04-16T09:13:42;36.03;30.20;39.72;;
70740;Laerm;58330;51.888;11.052;2023-04-16T09:16:08;36.69;30.59;39.64;;
70740;Laerm;58330;51.888;11.052;2023-04-16T09:18:36;36.09;30.28;39.44;;
70740;Laerm;58330;51.888;11.052;2023-04-16T09:21:03;35.18;30.40;39.21;;
70740;Laerm;58330;51.888;11.052;2023-04-16T09:23:31;35.71;30.22;39.41;;
70740;Laerm;58330;51.888;11.052;2023-04-16T09:25:58;37.05;30.70;40.03;;
70740;Laerm;58330;51.888;11.052;2023-04-16T09:28:41;37.48;30.42;40.10;;
70740;Laerm;58330;51.888;11.052;2023-04-16T09:31:11;37.50;30.82;39.86;;
70740;Laerm;58330;51.888;11.052;2023-04-16T09:33:38;37.41;30.64;40.68;;
70740;Laerm;58330;51.888;11.052;2023-04-16T09:36:06;36.73;30.67;39.31;;
70740;Laerm;58330;51.888;11.052;2023-04-16T09:38:45;37.05;30.43;40.08;;
70740;Laerm;58330;51.888;11.052;2023-04-16T09:41:12;36.83;30.17;39.69;;
70740;Laerm;58330;51.888;11.052;2023-04-16T09:43:40;36.66;30.11;39.67;;
70740;Laerm;58330;51.888;11.052;2023-04-16T09:46:06;36.84;30.29;39.94;;
70740;Laerm;58330;51.888;11.052;2023-04-16T09:48:36;36.59;30.28;39.88;;
70740;Laerm;58330;51.888;11.052;2023-04-16T09:51:04;36.02;30.53;39.62;;
70740;Laerm;58330;51.888;11.052;2023-04-16T09:53:32;35.84;30.27;38.88;;
70740;Laerm;58330;51.888;11.052;2023-04-16T09:55:59;36.15;30.12;39.78;;
70740;Laerm;58330;51.888;11.052;2023-04-16T09:58:26;35.55;30.07;38.88;;
70740;Laerm;58330;51.888;11.052;2023-04-16T10:00:54;35.45;30.38;39.20;;
70740;Laerm;58330;51.888;11.052;2023-04-16T10:03:25;35.24;29.74;38.66;;
70740;Laerm;58330;51.888;11.052;2023-04-16T10:05:53;37.78;30.34;50.91;;
70740;Laerm;58330;51.888;11.052;2023-04-16T10:08:20;43.88;30.65;51.41;;
70740;Laerm;58330;51.888;11.052;2023-04-16T10:10:47;38.70;30.26;50.11;;
70740;Laerm;58330;51.888;11.052;2023-04-16T10:13:14;40.16;30.52;50.67;;
70740;Laerm;58330;51.888;11.052;2023-04-16T10:15:41;41.93;30.48;50.10;;
70740;Laerm;58330;51.888;11.052;2023-04-16T10:18:08;41.74;30.84;48.87;;
70740;Laerm;58330;51.888;11.052;2023-04-16T10:20:35;41.27;30.58;49.33;;
70740;Laerm;58330;51.888;11.052;2023-04-16T10:23:02;39.40;30.40;49.30;;
70740;Laerm;58330;51.888;11.052;2023-04-16T10:25:28;39.95;30.57;49.25;;
70740;Laerm;58330;51.888;11.052;2023-04-16T10:27:57;40.28;30.30;50.71;;
70740;Laerm;58330;51.888;11.052;2023-04-16T10:30:24;38.07;30.36;49.16;;
70740;Laerm;58330;51.888;11.052;2023-04-16T10:32:50;39.50;30.39;49.36;;
70740;Laerm;58330;51.888;11.052;2023-04-16T10:35:18;38.36;30.59;49.08;;
70740;Laerm;58330;51.888;11.052;2023-04-16T10:37:44;37.47;30.32;56.65;;
70740;Laerm;58330;51.888;11.052;2023-04-16T10:40:20;32.47;30.04;56.24;;
70740;Laerm;58330;51.888;11.052;2023-04-16T10:42:52;37.94;30.20;58.37;;
70740;Laerm;58330;51.888;11.052;2023-04-16T10:45:19;36.23;30.06;48.52;;
70740;Laerm;58330;51.888;11.052;2023-04-16T10:47:52;36.66;30.09;48.21;;
70740;Laerm;58330;51.888;11.052;2023-04-16T10:50:20;36.07;30.18;48.17;;
70740;Laerm;58330;51.888;11.052;2023-04-16T10:52:46;35.98;30.40;48.12;;
70740;Laerm;58330;51.888;11.052;2023-04-16T10:55:14;36.88;30.19;47.94;;
70740;Laerm;58330;51.888;11.052;2023-04-16T10:57:41;35.31;30.23;46.43;;
70740;Laerm;58330;51.888;11.052;2023-04-16T11:00:21;36.41;30.05;45.69;;
70740;Laerm;58330;51.888;11.052;2023-04-16T11:02:51;36.00;29.96;45.80;;
70740;Laerm;58330;51.888;11.052;2023-04-16T11:05:20;36.83;30.62;47.02;;
70740;Laerm;58330;51.888;11.052;2023-04-16T11:07:46;36.69;30.23;47.29;;
70740;Laerm;58330;51.888;11.052;2023-04-16T11:10:13;37.59;30.30;48.93;;
70740;Laerm;58330;51.888;11.052;2023-04-16T11:12:40;38.65;30.29;48.93;;
70740;Laerm;58330;51.888;11.052;2023-04-16T11:15:09;39.46;30.66;48.93;;
70740;Laerm;58330;51.888;11.052;2023-04-16T11:17:38;39.92;30.57;48.61;;
70740;Laerm;58330;51.888;11.052;2023-04-16T11:20:04;39.76;30.44;49.68;;
70740;Laerm;58330;51.888;11.052;2023-04-16T11:22:33;39.99;30.51;49.15;;
70740;Laerm;58330;51.888;11.052;2023-04-16T11:24:59;38.72;30.64;51.86;;
70740;Laerm;58330;51.888;11.052;2023-04-16T11:27:26;41.60;30.66;50.60;;
70740;Laerm;58330;51.888;11.052;2023-04-16T11:29:55;40.37;30.37;49.19;;
70740;Laerm;58330;51.888;11.052;2023-04-16T11:32:22;39.38;29.90;48.90;;
70740;Laerm;58330;51.888;11.052;2023-04-16T11:34:50;39.47;30.70;48.86;;
70740;Laerm;58330;51.888;11.052;2023-04-16T11:37:18;39.10;30.23;47.95;;
70740;Laerm;58330;51.888;11.052;2023-04-16T11:39:48;39.71;30.70;48.13;;
70740;Laerm;58330;51.888;11.052;2023-04-16T11:42:18;38.80;30.82;53.96;;
70740;Laerm;58330;51.888;11.052;2023-04-16T11:44:45;32.64;30.93;38.30;;
70740;Laerm;58330;51.888;11.052;2023-04-16T11:47:11;38.67;30.64;55.64;;
70740;Laerm;58330;51.888;11.052;2023-04-16T11:49:38;39.90;31.18;55.30;;
70740;Laerm;58330;51.888;11.052;2023-04-16T11:52:06;38.37;30.60;46.02;;
70740;Laerm;58330;51.888;11.052;2023-04-16T11:54:32;38.97;30.64;46.20;;
70740;Laerm;58330;51.888;11.052;2023-04-16T11:57:00;39.25;30.57;46.84;;
70740;Laerm;58330;51.888;11.052;2023-04-16T11:59:28;35.93;30.52;45.53;;
70740;Laerm;58330;51.888;11.052;2023-04-16T12:01:55;33.58;30.56;47.04;;
70740;Laerm;58330;51.888;11.052;2023-04-16T12:04:22;35.15;30.69;50.41;;
70740;Laerm;58330;51.888;11.052;2023-04-16T12:07:06;36.03;31.02;39.58;;
70740;Laerm;58330;51.888;11.052;2023-04-16T12:09:34;36.47;30.84;40.97;;
70740;Laerm;58330;51.888;11.052;2023-04-16T12:12:00;34.13;30.95;37.95;;
70740;Laerm;58330;51.888;11.052;2023-04-16T12:14:27;34.60;31.31;38.50;;
70740;Laerm;58330;51.888;11.052;2023-04-16T12:16:54;34.21;31.45;39.61;;
70740;Laerm;58330;51.888;11.052;2023-04-16T12:19:20;33.41;30.95;36.50;;
70740;Laerm;58330;51.888;11.052;2023-04-16T12:21:48;33.12;31.27;35.62;;
70740;Laerm;58330;51.888;11.052;2023-04-16T12:24:16;35.50;30.79;55.43;;
70740;Laerm;58330;51.888;11.052;2023-04-16T12:26:45;32.11;30.60;33.17;;
70740;Laerm;58330;51.888;11.052;2023-04-16T12:29:13;32.03;30.87;33.11;;
70740;Laerm;58330;51.888;11.052;2023-04-16T12:31:39;32.18;30.86;33.57;;
70740;Laerm;58330;51.888;11.052;2023-04-16T12:34:06;32.28;30.70;33.57;;
70740;Laerm;58330;51.888;11.052;2023-04-16T12:36:32;32.34;31.10;33.72;;
70740;Laerm;58330;51.888;11.052;2023-04-16T12:38:58;32.27;31.06;33.73;;
70740;Laerm;58330;51.888;11.052;2023-04-16T12:41:26;32.40;31.10;33.77;;
70740;Laerm;58330;51.888;11.052;2023-04-16T12:44:00;32.99;30.86;43.50;;
70740;Laerm;58330;51.888;11.052;2023-04-16T12:46:27;34.40;30.81;45.62;;
70740;Laerm;58330;51.888;11.052;2023-04-16T12:48:53;34.10;30.71;43.69;;
70740;Laerm;58330;51.888;11.052;2023-04-16T12:51:20;34.00;30.80;42.95;;
70740;Laerm;58330;51.888;11.052;2023-04-16T12:53:47;33.94;30.77;42.51;;
70740;Laerm;58330;51.888;11.052;2023-04-16T12:56:13;33.78;30.74;42.78;;
70740;Laerm;58330;51.888;11.052;2023-04-16T12:58:42;33.13;31.20;36.71;;
70740;Laerm;58330;51.888;11.052;2023-04-16T13:01:08;33.22;31.41;35.94;;
70740;Laerm;58330;51.888;11.052;2023-04-16T13:03:35;34.09;31.66;36.77;;
70740;Laerm;58330;51.888;11.052;2023-04-16T13:06:02;33.94;31.35;36.95;;
70740;Laerm;58330;51.888;11.052;2023-04-16T13:08:28;33.79;31.32;37.65;;
70740;Laerm;58330;51.888;11.052;2023-04-16T13:10:58;33.66;31.39;36.23;;
70740;Laerm;58330;51.888;11.052;2023-04-16T13:13:24;34.22;31.28;37.48;;
70740;Laerm;58330;51.888;11.052;2023-04-16T13:15:52;34.41;31.39;37.24;;
70740;Laerm;58330;51.888;11.052;2023-04-16T13:18:18;34.03;31.13;37.58;;
70740;Laerm;58330;51.888;11.052;2023-04-16T13:20:45;34.89;31.36;39.76;;
70740;Laerm;58330;51.888;11.052;2023-04-16T13:23:11;33.42;30.83;40.75;;
70740;Laerm;58330;51.888;11.052;2023-04-16T13:25:37;33.67;30.80;43.76;;
70740;Laerm;58330;51.888;11.052;2023-04-16T13:28:04;33.02;30.90;43.14;;
70740;Laerm;58330;51.888;11.052;2023-04-16T13:30:30;35.11;31.00;46.35;;